sensor_id;sensor_type;location;lat;lon;timestamp;temperature;humidity
47532;DHT22;33273;52.254;7.988;2023-04-24T00:00:17;11.00;78.10
47532;DHT22;33273;52.254;7.988;2023-04-24T00:02:44;11.00;77.30
47532;DHT22;33273;52.254;7.988;2023-04-24T00:05:14;11.00;77.70
47532;DHT22;33273;52.254;7.988;2023-04-24T00:07:46;10.90;76.50
47532;DHT22;33273;52.254;7.988;2023-04-24T00:10:12;10.90;76.70
47532;DHT22;33273;52.254;7.988;2023-04-24T00:12:38;10.90;76.40
47532;DHT22;33273;52.254;7.988;2023-04-24T00:15:08;10.90;76.50
47532;DHT22;33273;52.254;7.988;2023-04-24T00:17:34;10.90;76.40
47532;DHT22;33273;52.254;7.988;2023-04-24T00:20:02;10.90;76.40
47532;DHT22;33273;52.254;7.988;2023-04-24T00:22:31;11.00;76.40
47532;DHT22;33273;52.254;7.988;2023-04-24T00:24:58;10.90;76.40
47532;DHT22;33273;52.254;7.988;2023-04-24T00:27:25;10.90;75.40
47532;DHT22;33273;52.254;7.988;2023-04-24T00:29:51;10.90;76.40
47532;DHT22;33273;52.254;7.988;2023-04-24T00:32:18;10.90;75.10
47532;DHT22;33273;52.254;7.988;2023-04-24T00:34:44;10.90;74.30
47532;DHT22;33273;52.254;7.988;2023-04-24T00:37:11;10.90;74.20
47532;DHT22;33273;52.254;7.988;2023-04-24T00:39:37;10.90;74.40
47532;DHT22;33273;52.254;7.988;2023-04-24T00:42:03;10.90;74.00
47532;DHT22;33273;52.254;7.988;2023-04-24T00:44:31;10.90;73.40
47532;DHT22;33273;52.254;7.988;2023-04-24T00:46:58;10.90;73.50
47532;DHT22;33273;52.254;7.988;2023-04-24T00:49:26;10.90;73.50
47532;DHT22;33273;52.254;7.988;2023-04-24T00:51:52;10.90;73.20
47532;DHT22;33273;52.254;7.988;2023-04-24T00:54:19;10.80;73.00
47532;DHT22;33273;52.254;7.988;2023-04-24T00:56:47;10.90;73.10
47532;DHT22;33273;52.254;7.988;2023-04-24T00:59:16;10.80;73.00
47532;DHT22;33273;52.254;7.988;2023-04-24T01:01:43;10.90;72.90
47532;DHT22;33273;52.254;7.988;2023-04-24T01:04:11;10.90;72.50
47532;DHT22;33273;52.254;7.988;2023-04-24T01:06:42;10.80;71.50
47532;DHT22;33273;52.254;7.988;2023-04-24T01:09:09;10.80;71.30
47532;DHT22;33273;52.254;7.988;2023-04-24T01:11:37;10.80;71.60
47532;DHT22;33273;52.254;7.988;2023-04-24T01:14:04;10.80;71.20
47532;DHT22;33273;52.254;7.988;2023-04-24T01:16:30;10.80;71.00
47532;DHT22;33273;52.254;7.988;2023-04-24T01:18:56;10.80;70.90
47532;DHT22;33273;52.254;7.988;2023-04-24T01:21:23;10.90;70.30
47532;DHT22;33273;52.254;7.988;2023-04-24T01:23:59;10.80;70.20
47532;DHT22;33273;52.254;7.988;2023-04-24T01:26:25;10.90;69.90
47532;DHT22;33273;52.254;7.988;2023-04-24T01:28:51;10.90;69.80
47532;DHT22;33273;52.254;7.988;2023-04-24T01:31:18;10.90;69.20
47532;DHT22;33273;52.254;7.988;2023-04-24T01:33:45;10.90;69.20
47532;DHT22;33273;52.254;7.988;2023-04-24T01:36:11;10.90;68.70
47532;DHT22;33273;52.254;7.988;2023-04-24T01:38:39;10.90;68.10
47532;DHT22;33273;52.254;7.988;2023-04-24T01:41:05;10.80;67.60
47532;DHT22;33273;52.254;7.988;2023-04-24T01:43:32;10.80;67.70
47532;DHT22;33273;52.254;7.988;2023-04-24T01:45:58;10.90;66.90
47532;DHT22;33273;52.254;7.988;2023-04-24T01:48:27;10.80;66.60
47532;DHT22;33273;52.254;7.988;2023-04-24T01:50:53;10.90;66.30
47532;DHT22;33273;52.254;7.988;2023-04-24T01:53:20;10.80;66.40
47532;DHT22;33273;52.254;7.988;2023-04-24T01:55:48;10.80;66.50
47532;DHT22;33273;52.254;7.988;2023-04-24T01:58:14;10.80;66.30
47532;DHT22;33273;52.254;7.988;2023-04-24T02:00:40;10.80;65.60
47532;DHT22;33273;52.254;7.988;2023-04-24T02:03:07;10.90;65.90
47532;DHT22;33273;52.254;7.988;2023-04-24T02:05:33;10.90;65.80
47532;DHT22;33273;52.254;7.988;2023-04-24T02:08:01;10.80;65.20
47532;DHT22;33273;52.254;7.988;2023-04-24T02:10:29;10.80;65.00
47532;DHT22;33273;52.254;7.988;2023-04-24T02:12:59;10.80;65.00
47532;DHT22;33273;52.254;7.988;2023-04-24T02:15:27;10.90;65.40
47532;DHT22;33273;52.254;7.988;2023-04-24T02:17:53;10.80;65.50
47532;DHT22;33273;52.254;7.988;2023-04-24T02:20:19;10.80;65.70
47532;DHT22;33273;52.254;7.988;2023-04-24T02:22:45;10.80;66.50
47532;DHT22;33273;52.254;7.988;2023-04-24T02:25:12;10.80;66.10
47532;DHT22;33273;52.254;7.988;2023-04-24T02:27:39;10.80;65.90
47532;DHT22;33273;52.254;7.988;2023-04-24T02:30:06;10.80;66.10
47532;DHT22;33273;52.254;7.988;2023-04-24T02:32:33;10.80;66.70
47532;DHT22;33273;52.254;7.988;2023-04-24T02:35:00;10.80;66.30
47532;DHT22;33273;52.254;7.988;2023-04-24T02:37:27;10.80;66.30
47532;DHT22;33273;52.254;7.988;2023-04-24T02:39:56;10.80;65.70
47532;DHT22;33273;52.254;7.988;2023-04-24T02:42:22;10.80;64.60
47532;DHT22;33273;52.254;7.988;2023-04-24T02:44:49;10.80;64.70
47532;DHT22;33273;52.254;7.988;2023-04-24T02:47:17;10.80;64.50
47532;DHT22;33273;52.254;7.988;2023-04-24T02:49:43;10.80;64.40
47532;DHT22;33273;52.254;7.988;2023-04-24T02:52:10;10.80;65.40
47532;DHT22;33273;52.254;7.988;2023-04-24T02:54:36;10.80;65.00
47532;DHT22;33273;52.254;7.988;2023-04-24T02:57:02;10.80;65.20
47532;DHT22;33273;52.254;7.988;2023-04-24T02:59:31;10.70;65.70
47532;DHT22;33273;52.254;7.988;2023-04-24T03:01:59;10.70;66.40
47532;DHT22;33273;52.254;7.988;2023-04-24T03:04:26;10.70;67.50
47532;DHT22;33273;52.254;7.988;2023-04-24T03:06:52;10.70;67.20
47532;DHT22;33273;52.254;7.988;2023-04-24T03:09:22;10.70;67.50
47532;DHT22;33273;52.254;7.988;2023-04-24T03:11:49;10.70;67.60
47532;DHT22;33273;52.254;7.988;2023-04-24T03:14:16;10.70;67.20
47532;DHT22;33273;52.254;7.988;2023-04-24T03:16:42;10.70;67.00
47532;DHT22;33273;52.254;7.988;2023-04-24T03:19:08;10.70;66.60
47532;DHT22;33273;52.254;7.988;2023-04-24T03:21:43;10.70;66.70
47532;DHT22;33273;52.254;7.988;2023-04-24T03:24:10;10.70;66.80
47532;DHT22;33273;52.254;7.988;2023-04-24T03:26:37;10.70;66.10
47532;DHT22;33273;52.254;7.988;2023-04-24T03:29:21;10.60;66.70
47532;DHT22;33273;52.254;7.988;2023-04-24T03:31:47;10.70;66.70
47532;DHT22;33273;52.254;7.988;2023-04-24T03:34:13;10.60;67.00
47532;DHT22;33273;52.254;7.988;2023-04-24T03:36:39;10.60;67.60
47532;DHT22;33273;52.254;7.988;2023-04-24T03:39:06;10.50;68.00
47532;DHT22;33273;52.254;7.988;2023-04-24T03:41:34;10.50;68.00
47532;DHT22;33273;52.254;7.988;2023-04-24T03:44:10;10.50;68.60
47532;DHT22;33273;52.254;7.988;2023-04-24T03:46:36;10.50;68.90
47532;DHT22;33273;52.254;7.988;2023-04-24T03:49:02;10.40;68.70
47532;DHT22;33273;52.254;7.988;2023-04-24T03:51:32;10.40;68.70
47532;DHT22;33273;52.254;7.988;2023-04-24T03:54:20;10.40;69.30
47532;DHT22;33273;52.254;7.988;2023-04-24T03:56:47;10.30;69.50
47532;DHT22;33273;52.254;7.988;2023-04-24T03:59:15;10.30;70.00
47532;DHT22;33273;52.254;7.988;2023-04-24T04:01:44;10.30;70.00
47532;DHT22;33273;52.254;7.988;2023-04-24T04:04:14;10.30;69.80
47532;DHT22;33273;52.254;7.988;2023-04-24T04:06:40;10.20;70.00
47532;DHT22;33273;52.254;7.988;2023-04-24T04:09:08;10.20;70.50
47532;DHT22;33273;52.254;7.988;2023-04-24T04:11:35;10.20;70.80
47532;DHT22;33273;52.254;7.988;2023-04-24T04:14:02;10.20;70.50
47532;DHT22;33273;52.254;7.988;2023-04-24T04:16:32;10.10;71.00
47532;DHT22;33273;52.254;7.988;2023-04-24T04:19:02;10.10;71.50
47532;DHT22;33273;52.254;7.988;2023-04-24T04:21:29;10.10;71.50
47532;DHT22;33273;52.254;7.988;2023-04-24T04:24:09;10.10;71.80
47532;DHT22;33273;52.254;7.988;2023-04-24T04:26:41;10.10;72.40
47532;DHT22;33273;52.254;7.988;2023-04-24T04:29:11;10.10;71.80
47532;DHT22;33273;52.254;7.988;2023-04-24T04:31:42;10.10;72.00
47532;DHT22;33273;52.254;7.988;2023-04-24T04:34:13;10.10;72.50
47532;DHT22;33273;52.254;7.988;2023-04-24T04:36:41;10.00;72.90
47532;DHT22;33273;52.254;7.988;2023-04-24T04:39:26;10.00;73.10
47532;DHT22;33273;52.254;7.988;2023-04-24T04:42:01;10.00;73.60
47532;DHT22;33273;52.254;7.988;2023-04-24T04:44:35;10.00;74.50
47532;DHT22;33273;52.254;7.988;2023-04-24T04:47:05;10.00;74.30
47532;DHT22;33273;52.254;7.988;2023-04-24T04:49:35;10.00;74.60
47532;DHT22;33273;52.254;7.988;2023-04-24T04:52:02;10.00;75.40
47532;DHT22;33273;52.254;7.988;2023-04-24T04:54:28;10.00;76.00
47532;DHT22;33273;52.254;7.988;2023-04-24T04:56:57;10.00;75.80
47532;DHT22;33273;52.254;7.988;2023-04-24T04:59:23;10.00;75.50
47532;DHT22;33273;52.254;7.988;2023-04-24T05:01:57;10.00;75.70
47532;DHT22;33273;52.254;7.988;2023-04-24T05:04:24;10.00;75.80
47532;DHT22;33273;52.254;7.988;2023-04-24T05:06:50;10.00;75.80
47532;DHT22;33273;52.254;7.988;2023-04-24T05:09:18;10.00;76.00
47532;DHT22;33273;52.254;7.988;2023-04-24T05:11:54;10.00;76.00
47532;DHT22;33273;52.254;7.988;2023-04-24T05:14:21;10.00;75.80
47532;DHT22;33273;52.254;7.988;2023-04-24T05:16:49;10.10;76.30
47532;DHT22;33273;52.254;7.988;2023-04-24T05:19:22;10.10;76.00
47532;DHT22;33273;52.254;7.988;2023-04-24T05:21:50;10.10;76.00
47532;DHT22;33273;52.254;7.988;2023-04-24T05:24:16;10.00;75.00
47532;DHT22;33273;52.254;7.988;2023-04-24T05:27:05;10.10;75.10
47532;DHT22;33273;52.254;7.988;2023-04-24T05:29:39;10.10;74.60
47532;DHT22;33273;52.254;7.988;2023-04-24T05:32:06;10.00;75.00
47532;DHT22;33273;52.254;7.988;2023-04-24T05:34:34;10.20;77.00
47532;DHT22;33273;52.254;7.988;2023-04-24T05:37:00;10.60;81.40
47532;DHT22;33273;52.254;7.988;2023-04-24T05:39:26;11.00;76.10
47532;DHT22;33273;52.254;7.988;2023-04-24T05:41:54;11.40;72.90
47532;DHT22;33273;52.254;7.988;2023-04-24T05:44:23;11.60;69.80
47532;DHT22;33273;52.254;7.988;2023-04-24T05:46:49;11.90;69.50
47532;DHT22;33273;52.254;7.988;2023-04-24T05:49:16;12.40;65.20
47532;DHT22;33273;52.254;7.988;2023-04-24T05:51:46;12.80;62.90
47532;DHT22;33273;52.254;7.988;2023-04-24T05:54:12;13.10;61.10
47532;DHT22;33273;52.254;7.988;2023-04-24T05:56:38;12.90;57.90
47532;DHT22;33273;52.254;7.988;2023-04-24T05:59:06;13.10;60.40
47532;DHT22;33273;52.254;7.988;2023-04-24T06:01:33;13.60;59.80
47532;DHT22;33273;52.254;7.988;2023-04-24T06:04:10;13.80;56.30
47532;DHT22;33273;52.254;7.988;2023-04-24T06:06:36;13.70;52.90
47532;DHT22;33273;52.254;7.988;2023-04-24T06:09:03;13.40;52.30
47532;DHT22;33273;52.254;7.988;2023-04-24T06:11:32;13.10;53.20
47532;DHT22;33273;52.254;7.988;2023-04-24T06:13:58;12.90;54.10
47532;DHT22;33273;52.254;7.988;2023-04-24T06:16:36;12.60;54.60
47532;DHT22;33273;52.254;7.988;2023-04-24T06:19:12;12.50;55.60
47532;DHT22;33273;52.254;7.988;2023-04-24T06:21:38;12.20;56.90
47532;DHT22;33273;52.254;7.988;2023-04-24T06:24:04;12.10;57.60
47532;DHT22;33273;52.254;7.988;2023-04-24T06:26:31;11.80;58.60
47532;DHT22;33273;52.254;7.988;2023-04-24T06:28:57;11.60;59.60
47532;DHT22;33273;52.254;7.988;2023-04-24T06:31:30;11.60;60.50
47532;DHT22;33273;52.254;7.988;2023-04-24T06:33:55;11.60;61.20
47532;DHT22;33273;52.254;7.988;2023-04-24T06:36:23;11.50;61.60
47532;DHT22;33273;52.254;7.988;2023-04-24T06:38:48;11.40;60.90
47532;DHT22;33273;52.254;7.988;2023-04-24T06:41:16;11.30;62.60
47532;DHT22;33273;52.254;7.988;2023-04-24T06:43:41;11.20;63.00
47532;DHT22;33273;52.254;7.988;2023-04-24T06:46:10;11.10;63.00
47532;DHT22;33273;52.254;7.988;2023-04-24T06:48:39;11.10;63.40
47532;DHT22;33273;52.254;7.988;2023-04-24T06:51:05;11.00;63.20
47532;DHT22;33273;52.254;7.988;2023-04-24T06:53:31;10.90;64.10
47532;DHT22;33273;52.254;7.988;2023-04-24T06:55:58;11.00;64.80
47532;DHT22;33273;52.254;7.988;2023-04-24T06:58:24;10.90;64.70
47532;DHT22;33273;52.254;7.988;2023-04-24T07:00:52;10.90;64.90
47532;DHT22;33273;52.254;7.988;2023-04-24T07:03:17;10.90;64.40
47532;DHT22;33273;52.254;7.988;2023-04-24T07:05:43;10.90;65.00
47532;DHT22;33273;52.254;7.988;2023-04-24T07:08:09;10.80;65.00
47532;DHT22;33273;52.254;7.988;2023-04-24T07:10:38;10.80;65.00
47532;DHT22;33273;52.254;7.988;2023-04-24T07:13:04;10.70;65.80
47532;DHT22;33273;52.254;7.988;2023-04-24T07:15:30;10.70;66.60
47532;DHT22;33273;52.254;7.988;2023-04-24T07:17:56;10.70;66.90
47532;DHT22;33273;52.254;7.988;2023-04-24T07:20:22;10.60;68.10
47532;DHT22;33273;52.254;7.988;2023-04-24T07:22:48;10.50;68.30
47532;DHT22;33273;52.254;7.988;2023-04-24T07:25:14;10.50;68.90
47532;DHT22;33273;52.254;7.988;2023-04-24T07:27:40;10.40;70.50
47532;DHT22;33273;52.254;7.988;2023-04-24T07:30:06;10.40;71.50
47532;DHT22;33273;52.254;7.988;2023-04-24T07:32:32;10.40;72.20
47532;DHT22;33273;52.254;7.988;2023-04-24T07:34:58;10.40;71.40
47532;DHT22;33273;52.254;7.988;2023-04-24T07:37:24;10.30;70.10
47532;DHT22;33273;52.254;7.988;2023-04-24T07:39:49;10.40;70.30
47532;DHT22;33273;52.254;7.988;2023-04-24T07:42:15;10.40;70.50
47532;DHT22;33273;52.254;7.988;2023-04-24T07:44:41;10.40;70.10
47532;DHT22;33273;52.254;7.988;2023-04-24T07:47:08;10.60;70.40
47532;DHT22;33273;52.254;7.988;2023-04-24T07:49:34;10.70;70.60
47532;DHT22;33273;52.254;7.988;2023-04-24T07:52:00;10.80;69.70
47532;DHT22;33273;52.254;7.988;2023-04-24T07:54:28;10.90;69.30
47532;DHT22;33273;52.254;7.988;2023-04-24T07:56:54;11.00;68.20
47532;DHT22;33273;52.254;7.988;2023-04-24T07:59:20;11.00;67.00
47532;DHT22;33273;52.254;7.988;2023-04-24T08:01:46;11.00;66.60
47532;DHT22;33273;52.254;7.988;2023-04-24T08:04:11;10.90;66.30
47532;DHT22;33273;52.254;7.988;2023-04-24T08:06:39;10.90;66.10
47532;DHT22;33273;52.254;7.988;2023-04-24T08:09:05;10.80;67.00
47532;DHT22;33273;52.254;7.988;2023-04-24T08:11:30;10.70;68.30
47532;DHT22;33273;52.254;7.988;2023-04-24T08:13:57;10.60;68.80
47532;DHT22;33273;52.254;7.988;2023-04-24T08:16:23;10.50;69.30
47532;DHT22;33273;52.254;7.988;2023-04-24T08:18:52;10.50;71.00
47532;DHT22;33273;52.254;7.988;2023-04-24T08:21:18;10.50;71.70
47532;DHT22;33273;52.254;7.988;2023-04-24T08:23:44;10.50;72.00
47532;DHT22;33273;52.254;7.988;2023-04-24T08:26:11;10.50;72.00
47532;DHT22;33273;52.254;7.988;2023-04-24T08:28:38;10.40;72.20
47532;DHT22;33273;52.254;7.988;2023-04-24T08:31:04;10.40;71.90
47532;DHT22;33273;52.254;7.988;2023-04-24T08:33:30;10.30;73.40
47532;DHT22;33273;52.254;7.988;2023-04-24T08:36:03;10.40;75.60
47532;DHT22;33273;52.254;7.988;2023-04-24T08:38:30;10.50;75.20
47532;DHT22;33273;52.254;7.988;2023-04-24T08:41:00;10.50;73.70
47532;DHT22;33273;52.254;7.988;2023-04-24T08:43:28;10.50;72.60
47532;DHT22;33273;52.254;7.988;2023-04-24T08:45:56;10.50;71.80
47532;DHT22;33273;52.254;7.988;2023-04-24T08:48:22;10.60;71.70
47532;DHT22;33273;52.254;7.988;2023-04-24T08:50:50;10.70;73.80
47532;DHT22;33273;52.254;7.988;2023-04-24T08:53:16;10.70;70.60
47532;DHT22;33273;52.254;7.988;2023-04-24T08:55:43;10.60;69.60
47532;DHT22;33273;52.254;7.988;2023-04-24T08:58:11;10.60;69.60
47532;DHT22;33273;52.254;7.988;2023-04-24T09:00:39;10.60;69.60
47532;DHT22;33273;52.254;7.988;2023-04-24T09:03:06;10.60;69.60
47532;DHT22;33273;52.254;7.988;2023-04-24T09:05:32;10.70;68.80
47532;DHT22;33273;52.254;7.988;2023-04-24T09:07:59;10.60;67.90
47532;DHT22;33273;52.254;7.988;2023-04-24T09:10:27;10.60;68.70
47532;DHT22;33273;52.254;7.988;2023-04-24T09:12:56;10.50;69.30
47532;DHT22;33273;52.254;7.988;2023-04-24T09:15:25;10.50;70.70
47532;DHT22;33273;52.254;7.988;2023-04-24T09:17:51;10.40;71.40
47532;DHT22;33273;52.254;7.988;2023-04-24T09:20:17;10.30;71.50
47532;DHT22;33273;52.254;7.988;2023-04-24T09:22:43;10.30;71.80
47532;DHT22;33273;52.254;7.988;2023-04-24T09:25:10;10.30;71.70
47532;DHT22;33273;52.254;7.988;2023-04-24T09:27:44;10.30;71.80
47532;DHT22;33273;52.254;7.988;2023-04-24T09:30:11;10.40;71.10
47532;DHT22;33273;52.254;7.988;2023-04-24T09:32:38;10.40;71.10
47532;DHT22;33273;52.254;7.988;2023-04-24T09:35:14;10.30;70.40
47532;DHT22;33273;52.254;7.988;2023-04-24T09:37:43;10.30;70.50
47532;DHT22;33273;52.254;7.988;2023-04-24T09:40:19;10.30;70.60
47532;DHT22;33273;52.254;7.988;2023-04-24T09:42:55;10.30;70.50
47532;DHT22;33273;52.254;7.988;2023-04-24T09:45:37;10.40;70.40
47532;DHT22;33273;52.254;7.988;2023-04-24T09:48:03;10.30;70.80
47532;DHT22;33273;52.254;7.988;2023-04-24T09:50:32;10.30;71.90
47532;DHT22;33273;52.254;7.988;2023-04-24T09:53:02;10.40;74.40
47532;DHT22;33273;52.254;7.988;2023-04-24T09:55:28;10.30;77.50
47532;DHT22;33273;52.254;7.988;2023-04-24T09:57:59;10.40;79.10
47532;DHT22;33273;52.254;7.988;2023-04-24T10:00:31;10.30;80.60
47532;DHT22;33273;52.254;7.988;2023-04-24T10:03:02;10.30;82.50
47532;DHT22;33273;52.254;7.988;2023-04-24T10:05:35;10.20;83.30
47532;DHT22;33273;52.254;7.988;2023-04-24T10:08:09;10.30;83.80
47532;DHT22;33273;52.254;7.988;2023-04-24T10:10:43;10.20;83.60
47532;DHT22;33273;52.254;7.988;2023-04-24T10:13:10;10.20;84.20
47532;DHT22;33273;52.254;7.988;2023-04-24T10:15:37;10.10;86.20
47532;DHT22;33273;52.254;7.988;2023-04-24T10:18:05;10.20;89.90
47532;DHT22;33273;52.254;7.988;2023-04-24T10:20:32;10.40;90.30
47532;DHT22;33273;52.254;7.988;2023-04-24T10:22:59;10.30;88.30
47532;DHT22;33273;52.254;7.988;2023-04-24T10:25:30;10.40;87.90
47532;DHT22;33273;52.254;7.988;2023-04-24T10:27:56;10.40;86.20
47532;DHT22;33273;52.254;7.988;2023-04-24T10:30:26;10.30;83.00
47532;DHT22;33273;52.254;7.988;2023-04-24T10:32:52;10.30;84.60
47532;DHT22;33273;52.254;7.988;2023-04-24T10:35:18;10.30;81.10
47532;DHT22;33273;52.254;7.988;2023-04-24T10:38:12;10.20;83.10
47532;DHT22;33273;52.254;7.988;2023-04-24T10:40:39;10.10;83.80
47532;DHT22;33273;52.254;7.988;2023-04-24T10:43:07;10.00;86.30
47532;DHT22;33273;52.254;7.988;2023-04-24T10:45:37;9.90;87.50
47532;DHT22;33273;52.254;7.988;2023-04-24T10:48:07;9.80;88.80
47532;DHT22;33273;52.254;7.988;2023-04-24T10:50:53;9.80;88.40
47532;DHT22;33273;52.254;7.988;2023-04-24T10:53:23;9.70;89.20
47532;DHT22;33273;52.254;7.988;2023-04-24T10:55:50;9.70;88.50
47532;DHT22;33273;52.254;7.988;2023-04-24T10:58:22;9.50;89.80
47532;DHT22;33273;52.254;7.988;2023-04-24T11:00:58;9.40;89.80
47532;DHT22;33273;52.254;7.988;2023-04-24T11:03:31;9.30;90.20
47532;DHT22;33273;52.254;7.988;2023-04-24T11:06:00;9.20;92.40
47532;DHT22;33273;52.254;7.988;2023-04-24T11:08:32;9.20;94.10
47532;DHT22;33273;52.254;7.988;2023-04-24T11:11:11;9.10;94.90
47532;DHT22;33273;52.254;7.988;2023-04-24T11:19:09;9.00;96.80
47532;DHT22;33273;52.254;7.988;2023-04-24T11:21:59;8.90;98.20
47532;DHT22;33273;52.254;7.988;2023-04-24T11:27:22;8.80;99.90
47532;DHT22;33273;52.254;7.988;2023-04-24T11:35:06;8.80;99.90
47532;DHT22;33273;52.254;7.988;2023-04-24T11:37:37;8.80;99.90
47532;DHT22;33273;52.254;7.988;2023-04-24T11:40:05;8.80;99.90
47532;DHT22;33273;52.254;7.988;2023-04-24T11:42:39;8.70;99.90
47532;DHT22;33273;52.254;7.988;2023-04-24T11:45:11;8.70;99.90
47532;DHT22;33273;52.254;7.988;2023-04-24T11:47:38;8.70;99.90
47532;DHT22;33273;52.254;7.988;2023-04-24T11:50:06;8.70;99.90
47532;DHT22;33273;52.254;7.988;2023-04-24T11:52:36;8.70;99.90
47532;DHT22;33273;52.254;7.988;2023-04-24T11:55:02;8.70;99.90
47532;DHT22;33273;52.254;7.988;2023-04-24T11:57:30;8.70;99.90
47532;DHT22;33273;52.254;7.988;2023-04-24T12:00:05;8.80;99.90
47532;DHT22;33273;52.254;7.988;2023-04-24T12:02:37;8.70;99.90
47532;DHT22;33273;52.254;7.988;2023-04-24T12:05:03;8.70;99.90
47532;DHT22;33273;52.254;7.988;2023-04-24T12:07:29;8.70;99.90
47532;DHT22;33273;52.254;7.988;2023-04-24T12:09:59;8.70;99.90
47532;DHT22;33273;52.254;7.988;2023-04-24T12:12:28;8.80;99.90
47532;DHT22;33273;52.254;7.988;2023-04-24T12:14:58;8.80;99.90
47532;DHT22;33273;52.254;7.988;2023-04-24T12:17:32;8.80;99.90
47532;DHT22;33273;52.254;7.988;2023-04-24T12:20:09;8.70;99.90
47532;DHT22;33273;52.254;7.988;2023-04-24T12:25:18;8.70;99.90
47532;DHT22;33273;52.254;7.988;2023-04-24T12:27:45;8.70;99.90
47532;DHT22;33273;52.254;7.988;2023-04-24T12:30:16;8.60;99.90
47532;DHT22;33273;52.254;7.988;2023-04-24T12:32:47;8.60;99.90
47532;DHT22;33273;52.254;7.988;2023-04-24T12:35:18;8.60;99.90
47532;DHT22;33273;52.254;7.988;2023-04-24T12:37:45;8.50;99.90
47532;DHT22;33273;52.254;7.988;2023-04-24T12:40:11;8.50;99.90
47532;DHT22;33273;52.254;7.988;2023-04-24T12:42:49;8.50;99.90
47532;DHT22;33273;52.254;7.988;2023-04-24T12:45:16;8.50;99.90
47532;DHT22;33273;52.254;7.988;2023-04-24T12:47:44;8.60;99.90
47532;DHT22;33273;52.254;7.988;2023-04-24T12:50:12;8.50;99.90
47532;DHT22;33273;52.254;7.988;2023-04-24T12:52:39;8.50;99.90
47532;DHT22;33273;52.254;7.988;2023-04-24T12:55:05;8.60;99.90
47532;DHT22;33273;52.254;7.988;2023-04-24T12:57:37;8.60;99.90
47532;DHT22;33273;52.254;7.988;2023-04-24T13:00:05;8.70;99.90
47532;DHT22;33273;52.254;7.988;2023-04-24T13:02:31;8.70;99.90
47532;DHT22;33273;52.254;7.988;2023-04-24T13:04:58;8.70;99.90
47532;DHT22;33273;52.254;7.988;2023-04-24T13:07:24;8.70;99.90
47532;DHT22;33273;52.254;7.988;2023-04-24T13:09:51;8.60;99.90
47532;DHT22;33273;52.254;7.988;2023-04-24T13:12:17;8.60;99.90
47532;DHT22;33273;52.254;7.988;2023-04-24T13:14:44;8.50;99.90
47532;DHT22;33273;52.254;7.988;2023-04-24T13:17:10;8.40;99.90
47532;DHT22;33273;52.254;7.988;2023-04-24T13:19:38;8.50;99.90
47532;DHT22;33273;52.254;7.988;2023-04-24T13:22:05;8.60;99.90
47532;DHT22;33273;52.254;7.988;2023-04-24T13:24:31;8.60;99.90
47532;DHT22;33273;52.254;7.988;2023-04-24T13:26:58;8.70;99.90
47532;DHT22;33273;52.254;7.988;2023-04-24T13:29:24;8.70;99.90
47532;DHT22;33273;52.254;7.988;2023-04-24T13:31:51;8.80;99.90
47532;DHT22;33273;52.254;7.988;2023-04-24T13:34:18;8.90;99.90
47532;DHT22;33273;52.254;7.988;2023-04-24T13:36:44;9.00;99.90
47532;DHT22;33273;52.254;7.988;2023-04-24T13:39:10;9.20;99.90
47532;DHT22;33273;52.254;7.988;2023-04-24T13:41:36;9.30;99.90
47532;DHT22;33273;52.254;7.988;2023-04-24T13:44:03;9.40;99.90
47532;DHT22;33273;52.254;7.988;2023-04-24T13:46:29;9.50;99.90
47532;DHT22;33273;52.254;7.988;2023-04-24T13:48:55;9.70;99.90
47532;DHT22;33273;52.254;7.988;2023-04-24T13:51:21;9.70;99.90
47532;DHT22;33273;52.254;7.988;2023-04-24T13:53:47;9.70;99.90
47532;DHT22;33273;52.254;7.988;2023-04-24T13:56:13;9.60;99.90
47532;DHT22;33273;52.254;7.988;2023-04-24T13:58:39;9.60;99.90
47532;DHT22;33273;52.254;7.988;2023-04-24T14:01:05;9.60;99.90
47532;DHT22;33273;52.254;7.988;2023-04-24T14:03:33;9.70;98.60
47532;DHT22;33273;52.254;7.988;2023-04-24T14:05:59;9.60;94.60
47532;DHT22;33273;52.254;7.988;2023-04-24T14:08:25;9.60;96.00
47532;DHT22;33273;52.254;7.988;2023-04-24T14:10:51;9.50;90.00
47532;DHT22;33273;52.254;7.988;2023-04-24T14:13:17;9.40;89.80
47532;DHT22;33273;52.254;7.988;2023-04-24T14:15:43;9.40;91.50
47532;DHT22;33273;52.254;7.988;2023-04-24T14:18:11;9.40;93.30
47532;DHT22;33273;52.254;7.988;2023-04-24T14:20:37;9.40;92.30
47532;DHT22;33273;52.254;7.988;2023-04-24T14:23:03;9.50;92.50
47532;DHT22;33273;52.254;7.988;2023-04-24T14:25:31;9.50;93.30
47532;DHT22;33273;52.254;7.988;2023-04-24T14:27:57;9.60;94.80
47532;DHT22;33273;52.254;7.988;2023-04-24T14:30:22;9.60;88.60
47532;DHT22;33273;52.254;7.988;2023-04-24T14:32:48;9.60;89.90
47532;DHT22;33273;52.254;7.988;2023-04-24T14:35:15;9.50;90.80
47532;DHT22;33273;52.254;7.988;2023-04-24T14:37:41;9.40;90.60
47532;DHT22;33273;52.254;7.988;2023-04-24T14:40:09;9.40;92.30
47532;DHT22;33273;52.254;7.988;2023-04-24T14:42:35;9.30;93.10
47532;DHT22;33273;52.254;7.988;2023-04-24T14:45:01;9.20;93.10
47532;DHT22;33273;52.254;7.988;2023-04-24T14:47:27;9.20;94.00
47532;DHT22;33273;52.254;7.988;2023-04-24T14:49:54;9.20;95.00
47532;DHT22;33273;52.254;7.988;2023-04-24T14:52:20;9.00;94.30
47532;DHT22;33273;52.254;7.988;2023-04-24T14:54:48;9.00;95.20
47532;DHT22;33273;52.254;7.988;2023-04-24T14:57:13;9.10;96.20
47532;DHT22;33273;52.254;7.988;2023-04-24T14:59:39;9.10;95.90
47532;DHT22;33273;52.254;7.988;2023-04-24T15:02:06;9.10;96.90
47532;DHT22;33273;52.254;7.988;2023-04-24T15:04:32;9.10;96.50
47532;DHT22;33273;52.254;7.988;2023-04-24T15:06:58;9.10;96.80
47532;DHT22;33273;52.254;7.988;2023-04-24T15:09:24;9.10;96.60
47532;DHT22;33273;52.254;7.988;2023-04-24T15:11:51;9.00;95.70
47532;DHT22;33273;52.254;7.988;2023-04-24T15:14:18;9.00;96.00
47532;DHT22;33273;52.254;7.988;2023-04-24T15:16:44;9.00;96.40
47532;DHT22;33273;52.254;7.988;2023-04-24T15:19:10;9.10;97.30
47532;DHT22;33273;52.254;7.988;2023-04-24T15:21:37;9.10;96.50
47532;DHT22;33273;52.254;7.988;2023-04-24T15:24:04;9.00;95.60
47532;DHT22;33273;52.254;7.988;2023-04-24T15:26:30;9.00;96.50
47532;DHT22;33273;52.254;7.988;2023-04-24T15:28:56;9.00;97.30
47532;DHT22;33273;52.254;7.988;2023-04-24T15:31:22;9.00;95.40
47532;DHT22;33273;52.254;7.988;2023-04-24T15:33:51;8.90;94.90
47532;DHT22;33273;52.254;7.988;2023-04-24T15:36:18;8.90;95.50
47532;DHT22;33273;52.254;7.988;2023-04-24T15:38:44;9.00;96.20
47532;DHT22;33273;52.254;7.988;2023-04-24T15:41:12;9.00;96.90
47532;DHT22;33273;52.254;7.988;2023-04-24T15:43:38;8.90;94.60
47532;DHT22;33273;52.254;7.988;2023-04-24T15:46:06;8.90;94.70
47532;DHT22;33273;52.254;7.988;2023-04-24T15:48:33;8.90;95.20
47532;DHT22;33273;52.254;7.988;2023-04-24T15:50:59;9.00;96.90
47532;DHT22;33273;52.254;7.988;2023-04-24T15:53:25;9.10;96.50
47532;DHT22;33273;52.254;7.988;2023-04-24T15:55:53;9.10;95.20